Time;durP1;ratioP1;P1;durP2;ratioP2;P2;SDS_P1;SDS_P2;PMS_P1;PMS_P2;Temp;Humidity;BMP_temperature;BMP_pressure;BME280_temperature;BME280_humidity;BME280_pressure;Samples;Min_cycle;Max_cycle;Signal;HPM_P1;HPM_P2
2023/01/27 02:26:41;;;;;;;33.50;22.70;;;;;;;0.29;78.31;99913.52;104952;1282;613191;-38
2023/01/27 02:29:13;;;;;;;36.20;22.40;;;;;;;0.68;76.14;99916.48;106239;1266;434189;-38
2023/01/27 02:31:42;;;;;;;34.50;21.80;;;;;;;0.51;76.08;99918.55;106660;1266;59595;-38
2023/01/27 02:34:16;;;;;;;31.40;20.30;;;;;;;0.47;75.84;99918.96;106640;1265;73470;-38
2023/01/27 02:36:48;;;;;;;30.00;20.70;;;;;;;0.51;75.50;99921.86;106657;1266;67937;-38
2023/01/27 02:39:18;;;;;;;36.20;20.90;;;;;;;0.51;75.39;99921.27;106592;1269;73872;-38
2023/01/27 02:41:49;;;;;;;34.00;22.20;;;;;;;0.46;74.96;99924.20;106675;1266;59559;-38
2023/01/27 02:44:17;;;;;;;36.40;22.40;;;;;;;0.41;75.07;99920.44;106670;1266;60682;-38
2023/01/27 02:46:46;;;;;;;35.40;21.30;;;;;;;0.37;74.80;99925.77;106707;1266;73594;-38
2023/01/27 02:49:14;;;;;;;29.90;19.60;;;;;;;0.33;74.56;99931.48;106714;1266;69924;-38
2023/01/27 02:51:44;;;;;;;28.40;18.30;;;;;;;0.32;74.26;99934.33;106722;1270;73290;-38
2023/01/27 02:54:12;;;;;;;33.60;20.10;;;;;;;0.38;73.98;99934.06;106690;1271;59751;-38
2023/01/27 02:56:41;;;;;;;34.10;20.10;;;;;;;0.38;73.48;99929.06;106770;1266;61397;-38
2023/01/27 02:59:12;;;;;;;33.90;20.10;;;;;;;0.31;73.29;99923.19;106738;1266;73846;-38
2023/01/27 03:01:41;;;;;;;30.80;19.00;;;;;;;0.23;73.43;99917.17;106743;1270;69933;-38
2023/01/27 03:04:10;;;;;;;34.40;19.90;;;;;;;0.20;73.59;99920.39;106606;1266;71385;-38
2023/01/27 03:06:42;;;;;;;33.30;20.30;;;;;;;0.18;73.43;99919.17;106596;1269;60419;-38
2023/01/27 03:09:11;;;;;;;31.70;20.00;;;;;;;0.17;73.31;99917.31;106747;1271;60840;-38
2023/01/27 03:20:03;;;;;;;33.40;19.50;;;;;;;0.23;73.45;99906.88;106735;1266;60743;-38
2023/01/27 03:22:32;;;;;;;32.80;19.40;;;;;;;0.24;73.13;99905.48;106784;1266;61340;-38
2023/01/27 03:25:02;;;;;;;35.40;20.20;;;;;;;0.22;72.97;99903.20;106737;1270;74246;-38
2023/01/27 03:27:30;;;;;;;36.40;21.40;;;;;;;0.19;72.86;99904.98;106663;1266;69687;-38
2023/01/27 03:30:22;;;;;;;36.90;21.70;;;;;;;0.17;72.97;99902.49;106658;1266;73657;-38
2023/01/27 03:33:02;;;;;;;29.40;19.30;;;;;;;0.18;72.77;99902.34;106692;1266;62084;-38
2023/01/27 03:35:48;;;;;;;31.00;20.10;;;;;;;0.21;72.89;99897.71;106714;1266;60936;-38
2023/01/27 03:46:41;;;;;;;40.00;22.50;;;;;;;0.11;72.94;99892.40;106733;1267;59647;-38
2023/01/27 03:49:10;;;;;;;36.40;20.90;;;;;;;0.05;72.96;99889.24;106009;1266;1002826;-38
2023/01/27 03:51:38;;;;;;;33.30;20.40;;;;;;;0.04;73.03;99887.91;106751;1269;74283;-39
2023/01/27 03:54:08;;;;;;;32.90;20.40;;;;;;;0.07;73.15;99894.88;106768;1266;69899;-38
2023/01/27 03:56:38;;;;;;;34.50;20.90;;;;;;;0.08;73.41;99897.65;106746;1270;73870;-38
2023/01/27 03:59:06;;;;;;;35.30;21.20;;;;;;;0.08;73.24;99899.03;106719;1271;60834;-39
2023/01/27 04:01:35;;;;;;;35.10;20.70;;;;;;;0.08;73.28;99898.45;106716;1265;61569;-39
2023/01/27 04:06:50;;;;;;;32.90;19.90;;;;;;;0.09;73.36;99902.45;106702;1269;69678;-38
2023/01/27 04:09:19;;;;;;;32.50;20.00;;;;;;;0.12;73.28;99899.11;106714;1269;73859;-39
2023/01/27 04:11:53;;;;;;;31.80;19.90;;;;;;;0.20;73.16;99901.35;106751;1270;59926;-38
2023/01/27 04:14:29;;;;;;;31.90;20.80;;;;;;;0.25;72.93;99901.30;106735;1266;61638;-39
2023/01/27 04:17:03;;;;;;;34.10;20.70;;;;;;;0.26;72.75;99894.79;106752;1267;74499;-38
2023/01/27 04:19:32;;;;;;;36.20;20.90;;;;;;;0.26;72.67;99895.70;106704;1270;69974;-39
2023/01/27 04:22:00;;;;;;;34.50;21.30;;;;;;;0.25;72.76;99892.98;106766;1266;71368;-39
2023/01/27 04:24:32;;;;;;;35.20;21.30;;;;;;;0.27;72.55;99893.93;106716;1266;60623;-39
2023/01/27 04:27:03;;;;;;;34.70;21.90;;;;;;;0.23;72.54;99899.20;106737;1266;61537;-38
2023/01/27 04:29:33;;;;;;;36.90;20.80;;;;;;;0.25;72.60;99898.95;106708;1266;72944;-39
2023/01/27 04:32:07;;;;;;;33.60;21.40;;;;;;;0.31;72.17;99899.83;106730;1266;69933;-39
2023/01/27 04:34:35;;;;;;;34.80;21.30;;;;;;;0.33;72.38;99905.36;107347;1259;73705;-38
2023/01/27 04:37:05;;;;;;;38.70;23.40;;;;;;;0.31;72.31;99901.38;107425;1254;59637;-39
2023/01/27 04:39:34;;;;;;;39.20;23.20;;;;;;;0.28;72.38;99901.98;105856;1259;1015772;-39
2023/01/27 04:42:02;;;;;;;40.20;23.20;;;;;;;0.24;72.49;99908.55;107357;1254;74278;-38
2023/01/27 04:44:32;;;;;;;40.60;23.10;;;;;;;0.18;72.65;99910.42;107421;1254;69909;-38
2023/01/27 04:47:00;;;;;;;34.60;21.20;;;;;;;0.13;72.91;99908.60;107389;1259;73829;-38
2023/01/27 04:49:29;;;;;;;29.60;18.60;;;;;;;0.14;72.99;99908.52;107388;1255;60529;-39
2023/01/27 04:51:58;;;;;;;35.50;22.10;;;;;;;0.12;72.91;99912.27;107442;1254;61331;-38
2023/01/27 04:54:26;;;;;;;37.50;21.70;;;;;;;0.10;73.19;99912.13;107387;1254;74179;-38
2023/01/27 04:56:57;;;;;;;35.80;22.50;;;;;;;0.11;73.32;99909.45;107376;1254;68094;-39
2023/01/27 04:59:25;;;;;;;41.80;24.40;;;;;;;0.09;73.32;99908.35;107427;1259;73778;-38
2023/01/27 05:01:54;;;;;;;39.20;23.20;;;;;;;0.08;73.40;99905.55;107352;1255;60871;-39
2023/01/27 05:04:25;;;;;;;40.00;23.60;;;;;;;0.07;73.39;99903.40;107441;1254;59886;-39
2023/01/27 05:06:55;;;;;;;;;;;;;;;0.05;73.10;99898.41;107424;1254;75263;-38
2023/01/27 05:09:23;;;;;;;40.20;24.10;;;;;;;0.02;73.48;99904.88;107447;1260;69990;-38
2023/01/27 05:11:52;;;;;;;40.70;24.20;;;;;;;-0.03;73.79;99902.52;107417;1259;73992;-38
2023/01/27 05:14:22;;;;;;;41.00;23.50;;;;;;;-0.05;73.73;99903.64;107453;1255;60765;-39
2023/01/27 05:16:51;;;;;;;;;;;;;;;-0.10;73.90;99902.45;106632;1254;1002829;-38
2023/01/27 05:19:19;;;;;;;41.00;23.50;;;;;;;-0.18;74.24;99903.19;107388;1258;74213;-38
2023/01/27 05:21:48;;;;;;;39.30;22.80;;;;;;;-0.14;74.18;99903.91;107371;1254;69954;-39
2023/01/27 05:24:16;;;;;;;36.90;23.60;;;;;;;-0.05;73.93;99900.94;107451;1254;73857;-39
2023/01/27 05:26:45;;;;;;;40.00;23.90;;;;;;;0.03;73.94;99904.45;107429;1254;60888;-39
2023/01/27 05:29:14;;;;;;;37.80;23.30;;;;;;;0.07;73.74;99907.30;107414;1255;61401;-39
2023/01/27 05:31:43;;;;;;;29.00;17.60;;;;;;;0.06;73.49;99904.37;107395;1254;74054;-39
2023/01/27 05:34:12;;;;;;;41.00;24.00;;;;;;;0.06;73.56;99904.48;107409;1256;69899;-39
2023/01/27 05:36:41;;;;;;;38.80;23.00;;;;;;;0.05;73.56;99904.77;107373;1254;73848;-39
2023/01/27 05:39:10;;;;;;;36.10;22.30;;;;;;;0.01;73.57;99912.34;107420;1259;62272;-39
2023/01/27 05:41:38;;;;;;;29.60;17.40;;;;;;;0.05;73.47;99909.93;107435;1259;61495;-39
2023/01/27 10:23:40;;;;;;;42.60;28.80;;;;;;;0.51;75.83;99893.70;105268;1280;613064;-36
2023/01/27 10:26:40;;;;;;;44.80;29.20;;;;;;;1.02;74.35;99890.38;106633;1269;172501;-36
2023/01/27 10:29:11;;;;;;;47.70;30.10;;;;;;;1.06;73.62;99885.05;106838;1269;60327;-36
2023/01/27 10:31:47;;;;;;;46.80;28.80;;;;;;;1.02;72.49;99884.48;106802;1267;72217;-36
2023/01/27 10:34:22;;;;;;;51.00;29.80;;;;;;;0.98;72.45;99879.90;106807;1264;69967;-36
2023/01/27 10:37:03;;;;;;;45.40;28.40;;;;;;;1.02;72.62;99872.44;106798;1269;73851;-37
2023/01/27 10:39:51;;;;;;;50.20;30.10;;;;;;;1.08;72.05;99871.40;106791;1264;60811;-37
2023/01/27 10:42:40;;;;;;;48.10;30.40;;;;;;;1.08;71.85;99867.50;106759;1264;61497;-37
2023/01/27 10:45:26;;;;;;;46.20;28.20;;;;;;;1.11;71.44;99862.08;106733;1265;71521;-37
2023/01/27 10:48:26;;;;;;;44.00;28.30;;;;;;;1.22;71.01;99859.23;106660;1269;69683;-38
2023/01/27 10:51:01;;;;;;;42.60;26.80;;;;;;;1.23;70.07;99855.04;106672;1269;73929;-38
2023/01/27 10:53:45;;;;;;;42.40;27.20;;;;;;;1.16;69.19;99852.73;106763;1269;59603;-38
2023/01/27 10:56:18;;;;;;;40.80;26.10;;;;;;;1.11;69.18;99852.75;106754;1264;61238;-38
2023/01/27 10:58:55;;;;;;;45.70;27.20;;;;;;;1.06;69.28;99852.58;106754;1268;74276;-38
2023/01/27 11:01:30;;;;;;;44.90;26.00;;;;;;;1.05;69.50;99852.05;106809;1267;69944;-38
2023/01/27 11:04:14;;;;;;;40.90;26.40;;;;;;;1.14;69.75;99852.85;105350;1269;1003752;-38
2023/01/27 11:06:43;;;;;;;43.80;27.20;;;;;;;1.20;69.75;99853.64;106798;1264;60840;-38
2023/01/27 11:09:38;;;;;;;46.10;27.50;;;;;;;1.20;69.14;99845.30;106763;1269;61233;-38
2023/01/27 11:12:11;;;;;;;48.00;28.80;;;;;;;1.26;69.54;99847.05;106777;1265;74253;-38
2023/01/27 11:14:44;;;;;;;51.60;31.00;;;;;;;1.33;69.29;99853.10;106779;1264;67580;-36
2023/01/27 11:17:50;;;;;;;44.50;28.20;;;;;;;1.41;68.98;99849.15;106807;1264;73708;-37
2023/01/27 11:20:18;;;;;;;45.20;26.80;;;;;;;1.39;68.78;99851.39;106779;1264;62380;-37
2023/01/27 11:22:58;;;;;;;44.70;28.20;;;;;;;1.44;68.51;99848.52;106818;1268;61505;-37
2023/01/27 11:25:28;;;;;;;49.40;29.50;;;;;;;1.45;68.44;99845.80;106066;1267;1003807;-37
2023/01/27 11:28:04;;;;;;;47.80;29.90;;;;;;;1.38;68.20;99850.65;106808;1269;70034;-36
2023/01/27 11:30:47;;;;;;;47.30;29.80;;;;;;;1.31;68.67;99856.70;106768;1269;73983;-37
2023/01/27 11:33:24;;;;;;;51.10;29.50;;;;;;;1.25;68.59;99858.48;106779;1270;60788;-36
2023/01/27 11:35:52;;;;;;;50.30;31.00;;;;;;;1.17;68.50;99856.93;106820;1267;61694;-37
2023/01/27 11:38:24;;;;;;;47.20;29.00;;;;;;;1.09;68.72;99851.10;106813;1267;73293;-37
2023/01/27 11:40:52;;;;;;;51.40;31.10;;;;;;;1.09;68.90;99850.08;106612;1273;69981;-37
2023/01/27 11:43:23;;;;;;;50.30;31.80;;;;;;;1.08;68.83;99846.19;106683;1269;73940;-37
2023/01/27 11:45:56;;;;;;;56.30;32.40;;;;;;;1.08;69.26;99848.28;106798;1267;60765;-37
2023/01/27 11:48:25;;;;;;;54.70;33.60;;;;;;;1.10;69.44;99846.28;106725;1267;61324;-37
2023/01/27 11:50:54;;;;;;;56.50;34.10;;;;;;;1.09;69.47;99843.14;106742;1267;74364;-38
2023/01/27 11:53:26;;;;;;;52.50;31.90;;;;;;;1.05;69.40;99842.61;106729;1270;68980;-37
2023/01/27 11:55:59;;;;;;;55.70;34.50;;;;;;;1.02;69.33;99845.36;106812;1269;73640;-37
2023/01/27 11:58:48;;;;;;;57.50;33.40;;;;;;;1.04;69.63;99836.79;106776;1267;59659;-37
2023/01/27 12:01:19;;;;;;;58.10;33.90;;;;;;;1.10;69.50;99831.70;106794;1268;61686;-37
2023/01/27 12:04:05;;;;;;;66.00;36.40;;;;;;;1.09;69.30;99826.31;107246;1257;74131;-38
2023/01/27 12:06:40;;;;;;;61.10;36.90;;;;;;;1.11;69.70;99829.72;107170;1257;69604;-37
2023/01/27 12:09:37;;;;;;;64.30;37.60;;;;;;;1.13;69.64;99830.02;106989;1257;72784;-37
2023/01/27 12:12:15;;;;;;;67.90;37.40;;;;;;;1.17;69.61;99832.58;107096;1263;62393;-37
2023/01/27 12:14:47;;;;;;;63.70;37.90;;;;;;;1.26;69.40;99834.06;107263;1257;61569;-37
2023/01/27 12:17:39;;;;;;;67.70;38.90;;;;;;;1.32;68.87;99836.73;107295;1257;73056;-37
2023/01/27 12:20:20;;;;;;;69.80;41.00;;;;;;;1.33;68.75;99835.59;107232;1260;68005;-37
2023/01/27 12:22:52;;;;;;;72.50;41.50;;;;;;;1.33;68.96;99832.27;107221;1257;73934;-37
2023/01/27 12:25:26;;;;;;;69.60;40.70;;;;;;;1.28;68.78;99834.25;107240;1257;59592;-37
2023/01/27 12:28:01;;;;;;;75.30;43.00;;;;;;;1.24;69.26;99825.98;107273;1260;61297;-37
2023/01/27 12:30:34;;;;;;;75.90;40.70;;;;;;;1.21;69.26;99817.58;107336;1257;71711;-37
2023/01/27 12:33:12;;;;;;;70.90;40.90;;;;;;;1.29;69.45;99811.01;107312;1257;69668;-37
2023/01/27 12:35:41;;;;;;;70.90;41.20;;;;;;;1.42;69.49;99804.39;107284;1257;74410;-37
2023/01/27 12:38:15;;;;;;;70.50;42.60;;;;;;;1.66;69.82;99804.63;107045;1257;60647;-37
2023/01/27 12:40:46;;;;;;;84.60;44.90;;;;;;;1.97;68.57;99801.64;107305;1257;60959;-38
2023/01/27 12:43:16;;;;;;;80.10;45.40;;;;;;;2.11;67.34;99799.18;107109;1257;74218;-37
2023/01/27 12:45:44;;;;;;;;;;;;;;;2.08;66.93;99798.34;107225;1257;70811;-37
2023/01/27 12:48:16;;;;;;;81.40;46.90;;;;;;;1.95;67.09;99802.42;105623;1257;1003620;-37
2023/01/27 12:50:54;;;;;;;78.30;44.70;;;;;;;1.81;67.31;99809.37;107258;1258;61837;-36
2023/01/27 12:53:26;;;;;;;77.00;44.70;;;;;;;1.88;67.60;99809.80;107293;1257;60647;-37
2023/01/27 12:56:10;;;;;;;75.70;44.50;;;;;;;1.98;67.31;99813.55;106541;1257;1002898;-37
2023/01/27 12:58:53;;;;;;;83.10;46.70;;;;;;;2.04;67.57;99806.71;107334;1257;69704;-37
2023/01/27 13:01:29;;;;;;;71.40;44.20;;;;;;;2.08;67.29;99809.85;107247;1258;72862;-36
2023/01/27 13:04:03;;;;;;;85.40;47.70;;;;;;;2.11;67.01;99810.94;107267;1257;59748;-37
2023/01/27 13:06:42;;;;;;;78.70;46.40;;;;;;;2.05;67.08;99808.88;107243;1260;61987;-37
2023/01/27 13:09:26;;;;;;;77.90;46.90;;;;;;;2.02;67.34;99810.50;107208;1257;74227;-37
2023/01/27 13:11:56;;;;;;;84.90;46.80;;;;;;;2.02;67.05;99807.69;107218;1260;70248;-37
2023/01/27 13:14:28;;;;;;;81.00;44.50;;;;;;;1.96;67.12;99809.41;107244;1257;73825;-37
2023/01/27 13:16:59;;;;;;;74.30;43.40;;;;;;;1.98;67.23;99808.10;107245;1257;59865;-37
2023/01/27 13:19:35;;;;;;;80.10;46.70;;;;;;;1.99;67.42;99809.41;107230;1258;60527;-38
2023/01/27 13:22:04;;;;;;;95.20;57.30;;;;;;;2.00;67.32;99806.09;107176;1257;74024;-38
2023/01/27 13:24:38;;;;;;;87.00;50.60;;;;;;;2.00;67.07;99803.73;107139;1256;68033;-38
2023/01/27 13:27:16;;;;;;;96.70;54.20;;;;;;;1.95;67.15;99804.45;107162;1257;73869;-38
2023/01/27 13:29:56;;;;;;;99.60;56.20;;;;;;;1.89;67.38;99809.02;107262;1257;59520;-37
2023/01/27 13:32:27;;;;;;;90.80;51.40;;;;;;;1.89;67.59;99806.85;107214;1260;61532;-37
2023/01/27 13:35:16;;;;;;;92.60;50.30;;;;;;;1.92;67.44;99805.99;107249;1257;72861;-37
2023/01/27 13:38:02;;;;;;;99.70;52.00;;;;;;;1.99;67.54;99803.64;107235;1257;69343;-37
2023/01/27 13:40:40;;;;;;;102.60;53.30;;;;;;;2.02;67.59;99807.89;107203;1260;72466;-37
2023/01/27 13:43:31;;;;;;;95.20;51.00;;;;;;;1.98;67.47;99808.67;107262;1257;59634;-37
2023/01/27 13:46:20;;;;;;;96.60;52.20;;;;;;;1.98;67.52;99808.11;107185;1257;61519;-37
2023/01/27 19:58:46;;;;;;;45.10;26.90;;;;;;;-2.75;85.52;99894.15;104945;1279;613286;-40
2023/01/27 20:01:13;;;;;;;43.80;24.40;;;;;;;-2.50;84.72;99894.57;107435;1266;62411;-39
2023/01/27 20:03:40;;;;;;;38.50;23.50;;;;;;;-2.28;84.32;99897.02;106606;1266;61213;-40
2023/01/27 20:06:21;;;;;;;38.70;22.60;;;;;;;-2.09;83.83;99894.04;106736;1266;72573;-40
2023/01/27 20:08:55;;;;;;;40.70;24.00;;;;;;;-1.94;83.32;99891.84;106610;1272;68763;-40
2023/01/27 20:11:25;;;;;;;47.10;26.20;;;;;;;-1.87;82.67;99892.05;105872;1263;1003505;-40
2023/01/27 20:13:52;;;;;;;;;;;;;;;-1.82;82.23;99890.40;106855;1267;62313;-40
2023/01/27 20:16:19;;;;;;;41.30;23.20;;;;;;;-1.74;81.99;99884.35;106855;1263;60551;-40
2023/01/27 20:18:47;;;;;;;39.30;23.10;;;;;;;-1.65;81.26;99881.16;106894;1263;73078;-40
2023/01/27 20:21:14;;;;;;;35.50;21.20;;;;;;;-1.60;80.38;99878.23;106791;1264;69930;-40
2023/01/27 20:23:41;;;;;;;38.10;22.20;;;;;;;-1.61;79.28;99877.61;106837;1263;73922;-40
2023/01/27 20:26:12;;;;;;;40.50;23.60;;;;;;;-1.64;78.93;99878.44;106800;1263;60663;-40
2023/01/27 20:28:39;;;;;;;40.70;22.40;;;;;;;-1.70;78.67;99879.08;106865;1263;61160;-40
2023/01/27 20:31:11;;;;;;;34.20;21.00;;;;;;;-1.65;78.21;99879.61;106893;1263;74070;-40
2023/01/27 20:33:38;;;;;;;37.50;21.80;;;;;;;-1.64;78.03;99879.40;106849;1263;69989;-40
2023/01/27 20:36:07;;;;;;;34.70;20.10;;;;;;;-1.67;78.07;99880.35;106851;1264;73953;-40
2023/01/27 20:38:34;;;;;;;34.60;21.30;;;;;;;-1.65;78.12;99878.70;106827;1264;59732;-40
2023/01/27 20:41:07;;;;;;;36.60;21.80;;;;;;;-1.65;77.79;99875.04;106847;1263;61283;-40
2023/01/27 20:43:34;;;;;;;34.90;19.40;;;;;;;-1.64;77.52;99871.52;106883;1263;74069;-40
2023/01/27 20:46:04;;;;;;;35.20;20.30;;;;;;;-1.58;77.08;99872.06;106768;1263;68790;-40
2023/01/27 20:48:32;;;;;;;25.70;15.00;;;;;;;-1.58;76.59;99874.34;106850;1263;72824;-40
2023/01/27 20:51:00;;;;;;;33.70;20.70;;;;;;;-1.65;76.56;99872.23;106882;1263;59662;-40
2023/01/27 20:53:30;;;;;;;36.40;22.10;;;;;;;-1.68;76.98;99874.24;106855;1263;60108;-40
2023/01/27 20:56:00;;;;;;;32.70;19.60;;;;;;;-1.67;76.74;99877.55;106871;1263;74142;-40
2023/01/27 20:58:27;;;;;;;;;;;;;;;-1.60;76.70;99879.02;106883;1264;67910;-40
2023/01/27 21:01:14;;;;;;;33.70;20.80;;;;;;;-1.58;76.73;99879.30;106840;1263;73969;-40
2023/01/27 21:03:42;;;;;;;37.10;21.80;;;;;;;-1.59;76.88;99875.24;107008;1260;60394;-40
2023/01/27 21:06:10;;;;;;;40.90;22.90;;;;;;;-1.58;77.08;99879.30;107128;1260;60554;-40
2023/01/27 21:08:37;;;;;;;35.60;22.10;;;;;;;-1.52;76.94;99877.21;106976;1260;74267;-40
2023/01/27 21:11:10;;;;;;;39.70;23.00;;;;;;;-1.46;76.86;99875.39;107045;1260;69909;-41
2023/01/27 21:13:37;;;;;;;34.00;20.30;;;;;;;-1.44;76.90;99874.45;107044;1260;73837;-40
2023/01/27 21:16:05;;;;;;;37.70;21.70;;;;;;;-1.35;76.62;99869.96;107048;1260;62448;-41
2023/01/27 21:18:32;;;;;;;37.40;22.00;;;;;;;-1.26;76.19;99864.79;107068;1260;61022;-40
2023/01/27 21:21:02;;;;;;;38.10;21.10;;;;;;;-1.26;76.04;99865.42;107077;1260;73005;-40
2023/01/27 21:23:31;;;;;;;39.00;21.00;;;;;;;-1.26;75.73;99864.36;107007;1261;69957;-40
2023/01/27 21:26:03;;;;;;;34.60;20.50;;;;;;;-1.26;75.75;99866.60;107014;1260;73997;-40
2023/01/27 21:28:32;;;;;;;36.80;21.60;;;;;;;-1.26;75.78;99858.89;106916;1260;60494;-41
2023/01/27 21:31:06;;;;;;;39.40;22.10;;;;;;;-1.24;75.56;99858.14;106266;1260;1002991;-40
2023/01/27 21:33:35;;;;;;;35.20;22.50;;;;;;;-1.16;75.30;99860.83;107019;1264;74007;-40
2023/01/27 21:36:03;;;;;;;36.90;20.90;;;;;;;-1.08;75.05;99863.55;107032;1260;69923;-41
2023/01/27 21:38:31;;;;;;;32.10;20.10;;;;;;;-1.11;74.53;99868.52;107037;1260;73820;-40
2023/01/27 21:41:11;;;;;;;35.20;20.70;;;;;;;-1.22;74.37;99868.45;107064;1260;60619;-40
2023/01/27 21:46:23;;;;;;;37.50;21.30;;;;;;;-1.43;74.55;99866.20;107004;1260;74240;-40
2023/01/27 21:48:50;;;;;;;29.30;17.80;;;;;;;-1.48;74.70;99869.23;107090;1260;69924;-41
2023/01/27 21:51:18;;;;;;;34.60;20.10;;;;;;;-1.48;74.73;99869.23;107013;1260;73891;-40
2023/01/27 21:53:45;;;;;;;31.60;20.00;;;;;;;-1.51;74.75;99863.51;107040;1260;60532;-40
2023/01/27 21:56:12;;;;;;;35.30;20.60;;;;;;;-1.53;75.12;99860.36;107104;1260;60910;-41
2023/01/27 21:58:39;;;;;;;37.50;22.20;;;;;;;-1.56;75.04;99861.05;107028;1260;73317;-41
2023/01/27 22:01:08;;;;;;;34.80;20.90;;;;;;;-1.55;75.41;99855.52;107062;1260;69704;-41
2023/01/27 22:03:35;;;;;;;33.80;20.00;;;;;;;-1.47;75.34;99848.65;107488;1254;73858;-40
